Time;durP1;ratioP1;P1;durP2;ratioP2;P2;SDS_P1;SDS_P2;PMS_P1;PMS_P2;Temp;Humidity;BMP_temperature;BMP_pressure;BME280_temperature;BME280_humidity;BME280_pressure;Samples;Min_cycle;Max_cycle;Signal;HPM_P1;HPM_P2
2023/02/10 00:01:47;;;;;;;25.30;12.90;;;;;;;-2.31;69.33;100503.56;221779;1276;25843;-73
2023/02/10 00:06:49;;;;;;;20.60;12.60;;;;;;;-2.31;69.45;100489.92;221650;1274;24252;-74
2023/02/10 00:11:56;;;;;;;19.60;10.90;;;;;;;-2.29;69.37;100482.59;221649;1277;22526;-74
2023/02/10 00:16:59;;;;;;;20.40;11.60;;;;;;;-2.27;69.38;100469.06;221586;1275;22592;-74
2023/02/10 00:22:02;;;;;;;19.60;10.50;;;;;;;-2.23;69.62;100459.57;221773;1277;22604;-73
2023/02/10 00:27:04;;;;;;;22.00;13.20;;;;;;;-2.19;69.70;100465.91;221601;1272;22750;-74
2023/02/10 00:32:06;;;;;;;18.90;11.80;;;;;;;-2.12;69.66;100467.70;221619;1277;24243;-73
2023/02/10 00:37:09;;;;;;;21.80;11.90;;;;;;;-2.06;69.62;100464.85;221691;1277;22541;-74
2023/02/10 00:42:11;;;;;;;23.00;13.10;;;;;;;-2.01;69.44;100466.02;221662;1278;22536;-73
2023/02/10 00:47:13;;;;;;;20.20;12.60;;;;;;;-1.99;69.55;100461.10;221311;1278;22630;-73
2023/02/10 00:52:15;;;;;;;21.20;12.40;;;;;;;-1.99;69.62;100464.70;221634;1276;23105;-75
2023/02/10 00:57:17;;;;;;;21.90;12.80;;;;;;;-1.98;69.99;100479.87;221505;1272;22917;-74
2023/02/10 01:02:19;;;;;;;21.60;12.60;;;;;;;-1.98;69.65;100479.55;221533;1276;22544;-74
2023/02/10 01:07:20;;;;;;;20.40;10.70;;;;;;;-1.99;69.93;100482.84;221625;1278;22720;-73
2023/02/10 01:12:22;;;;;;;19.20;10.40;;;;;;;-2.00;69.67;100479.42;221527;1277;23830;-73
2023/02/10 01:17:24;;;;;;;21.90;12.80;;;;;;;-2.01;69.72;100476.03;221619;1277;24399;-74
2023/02/10 01:22:26;;;;;;;21.00;11.40;;;;;;;-2.03;69.76;100470.05;221569;1276;25344;-73
2023/02/10 01:27:29;;;;;;;19.00;11.50;;;;;;;-2.06;69.55;100463.98;221454;1277;25588;-74
2023/02/10 01:32:31;;;;;;;17.90;10.90;;;;;;;-2.08;69.77;100461.88;221588;1276;24241;-73
2023/02/10 01:37:36;;;;;;;21.20;12.50;;;;;;;-2.10;69.70;100462.98;221519;1276;22701;-74
2023/02/10 01:42:42;;;;;;;19.00;11.50;;;;;;;-2.11;69.84;100464.22;221724;1276;22541;-73
2023/02/10 01:47:46;;;;;;;18.00;9.90;;;;;;;-2.15;69.73;100461.44;221641;1275;22718;-73
2023/02/10 01:52:48;;;;;;;21.80;11.90;;;;;;;-2.18;70.07;100467.26;221377;1278;22656;-73
2023/02/10 01:57:53;;;;;;;20.10;11.90;;;;;;;-2.21;69.93;100467.91;221893;1274;24046;-74
2023/02/10 02:02:56;;;;;;;18.70;11.70;;;;;;;-2.26;69.88;100473.30;221811;1277;24321;-74
2023/02/10 02:08:11;;;;;;;23.60;13.10;;;;;;;-2.30;70.21;100474.88;221754;1272;22896;-73
2023/02/10 02:13:42;;;;;;;19.20;11.40;;;;;;;-2.33;70.10;100467.58;221710;1277;22592;-73
2023/02/10 02:18:58;;;;;;;17.10;10.30;;;;;;;-2.36;70.05;100441.50;221494;1277;23324;-73
2023/02/10 02:24:16;;;;;;;22.90;12.10;;;;;;;-2.41;70.25;100424.80;221651;1277;22574;-74
2023/02/10 02:29:49;;;;;;;23.00;12.40;;;;;;;-2.46;70.61;100430.16;221650;1276;24280;-73
2023/02/10 02:34:59;;;;;;;20.40;12.30;;;;;;;-2.52;70.44;100437.14;221609;1274;22642;-74
2023/02/10 02:40:02;;;;;;;20.10;12.00;;;;;;;-2.60;70.66;100431.45;221566;1278;24355;-74
2023/02/10 02:45:15;;;;;;;18.90;11.10;;;;;;;-2.66;70.62;100430.17;221538;1277;22536;-74
2023/02/10 02:50:32;;;;;;;20.20;12.30;;;;;;;-2.70;70.83;100434.64;221383;1278;22644;-74
2023/02/10 02:56:22;;;;;;;18.80;10.70;;;;;;;-2.73;70.70;100437.20;221635;1276;22619;-72
2023/02/10 03:02:03;;;;;;;17.10;9.70;;;;;;;-2.79;70.88;100440.00;221177;1277;24228;-74
2023/02/10 03:07:06;;;;;;;17.90;10.50;;;;;;;-2.81;70.92;100435.63;221640;1277;25504;-72
2023/02/10 03:12:08;;;;;;;17.60;9.40;;;;;;;-2.84;70.76;100432.66;221622;1270;22591;-74
2023/02/10 03:17:10;;;;;;;17.40;10.80;;;;;;;-2.87;71.00;100430.36;221562;1278;22717;-73
2023/02/10 03:22:12;;;;;;;16.60;10.10;;;;;;;-2.90;70.92;100429.27;221665;1277;25571;-73
2023/02/10 03:27:14;;;;;;;20.50;11.50;;;;;;;-2.95;71.02;100434.29;221623;1277;25566;-73
2023/02/10 03:32:16;;;;;;;19.60;11.20;;;;;;;-3.00;71.19;100438.30;221520;1277;24247;-73
2023/02/10 03:37:18;;;;;;;17.90;10.70;;;;;;;-3.04;71.03;100440.88;221559;1278;24255;-73
2023/02/10 03:42:20;;;;;;;19.50;10.30;;;;;;;-3.08;71.09;100444.11;221649;1277;25658;-73
2023/02/10 03:47:22;;;;;;;18.80;10.80;;;;;;;-3.12;71.07;100449.11;221616;1278;22624;-73
2023/02/10 03:52:24;;;;;;;17.50;10.50;;;;;;;-3.16;71.41;100437.58;221546;1274;24275;-74
2023/02/10 03:57:26;;;;;;;19.70;10.60;;;;;;;-3.21;71.44;100442.39;221637;1260;23961;-74
2023/02/10 04:02:28;;;;;;;16.10;10.60;;;;;;;-3.25;71.32;100446.88;221569;1275;23080;-73
2023/02/10 04:07:30;;;;;;;17.30;10.40;;;;;;;-3.30;71.49;100442.95;221616;1276;24330;-73
2023/02/10 04:12:32;;;;;;;21.10;11.50;;;;;;;-3.34;71.37;100441.55;221614;1273;24305;-74
2023/02/10 04:17:34;;;;;;;21.40;11.30;;;;;;;-3.39;71.40;100445.88;221564;1276;26627;-73
2023/02/10 04:22:36;;;;;;;20.40;10.70;;;;;;;-3.44;71.58;100445.39;221610;1274;22816;-73
2023/02/10 04:27:37;;;;;;;21.20;12.30;;;;;;;-3.46;71.61;100440.99;221565;1270;25571;-73
2023/02/10 04:32:40;;;;;;;19.70;10.00;;;;;;;-3.50;71.58;100441.84;221631;1271;22578;-74
2023/02/10 04:37:41;;;;;;;19.90;11.60;;;;;;;-3.56;71.72;100442.73;221603;1276;22572;-73
2023/02/10 04:42:44;;;;;;;21.30;11.20;;;;;;;-3.60;71.61;100455.28;221597;1274;23128;-73
2023/02/10 04:47:48;;;;;;;19.80;11.20;;;;;;;-3.62;71.88;100459.68;221581;1278;22712;-73
2023/02/10 04:52:50;;;;;;;21.60;11.90;;;;;;;-3.64;71.91;100458.36;221643;1273;22576;-74
2023/02/10 04:57:52;;;;;;;22.80;12.00;;;;;;;-3.65;72.00;100462.34;221655;1273;24290;-73
2023/02/10 05:02:54;;;;;;;22.10;11.80;;;;;;;-3.65;71.86;100462.36;221468;1273;23394;-74
2023/02/10 05:07:56;;;;;;;22.10;12.00;;;;;;;-3.64;71.75;100465.77;221604;1276;25531;-72
2023/02/10 05:12:58;;;;;;;20.50;11.30;;;;;;;-3.62;71.97;100463.48;221619;1274;23968;-73
2023/02/10 05:18:00;;;;;;;19.00;11.20;;;;;;;-3.62;71.76;100463.78;221525;1276;27186;-73
2023/02/10 05:23:02;;;;;;;21.70;12.00;;;;;;;-3.60;72.00;100472.00;221795;1276;22656;-73
2023/02/10 05:28:04;;;;;;;22.30;11.50;;;;;;;-3.60;71.86;100483.54;221555;1277;24238;-74
2023/02/10 05:33:06;;;;;;;22.90;12.50;;;;;;;-3.62;71.74;100488.41;221563;1277;25552;-74
2023/02/10 05:38:08;;;;;;;19.70;11.60;;;;;;;-3.63;71.89;100497.92;221666;1277;22722;-73
2023/02/10 05:43:10;;;;;;;21.60;11.70;;;;;;;-3.64;71.99;100506.05;221460;1277;25645;-74
2023/02/10 05:48:12;;;;;;;22.40;11.20;;;;;;;-3.66;71.78;100513.89;221595;1277;24271;-73
2023/02/10 05:53:14;;;;;;;21.20;11.50;;;;;;;-3.68;71.84;100516.89;221635;1273;24200;-73
2023/02/10 05:58:16;;;;;;;21.70;12.80;;;;;;;-3.72;71.96;100513.95;221648;1273;22631;-73
2023/02/10 06:03:18;;;;;;;25.50;13.10;;;;;;;-3.73;72.02;100521.91;221589;1277;22570;-73
2023/02/10 06:08:20;;;;;;;20.90;12.00;;;;;;;-3.76;71.98;100526.80;221618;1277;22693;-73
2023/02/10 06:13:22;;;;;;;22.30;12.50;;;;;;;-3.76;72.21;100529.05;221636;1274;24856;-73
2023/02/10 06:18:24;;;;;;;21.90;12.80;;;;;;;-3.73;72.21;100528.45;221535;1272;24409;-73
2023/02/10 06:23:26;;;;;;;20.30;11.30;;;;;;;-3.71;72.21;100534.71;221564;1277;22590;-73
2023/02/10 06:28:28;;;;;;;24.50;12.20;;;;;;;-3.68;72.23;100533.05;221608;1271;22628;-74
2023/02/10 06:33:29;;;;;;;22.60;11.30;;;;;;;-3.64;72.26;100534.45;221687;1273;22558;-74
2023/02/10 06:38:33;;;;;;;23.20;12.50;;;;;;;-3.58;72.37;100536.13;221628;1275;25518;-74
2023/02/10 06:43:34;;;;;;;21.10;11.60;;;;;;;-3.52;72.34;100539.89;221720;1264;22587;-72
2023/02/10 06:48:36;;;;;;;21.50;12.30;;;;;;;-3.44;72.12;100539.09;221822;1270;22610;-72
2023/02/10 06:53:38;;;;;;;22.20;13.20;;;;;;;-3.38;72.16;100539.37;221752;1254;23169;-73
2023/02/10 06:58:40;;;;;;;25.30;13.30;;;;;;;-3.31;72.22;100548.07;222144;1267;22747;-73
2023/02/10 07:03:42;;;;;;;22.90;12.40;;;;;;;-3.20;72.16;100549.72;221908;1265;140417;-74
2023/02/10 07:08:45;;;;;;;26.00;14.20;;;;;;;-3.07;72.06;100550.42;221726;1262;22583;-73
2023/02/10 07:13:47;;;;;;;23.70;14.00;;;;;;;-2.93;71.99;100550.75;221938;1256;138404;-73
2023/02/10 07:18:49;;;;;;;22.20;13.30;;;;;;;-2.80;71.55;100561.27;221843;1264;138633;-74
2023/02/10 07:23:51;;;;;;;25.50;14.50;;;;;;;-2.67;71.54;100563.00;221149;1261;138968;-74
2023/02/10 07:28:54;;;;;;;25.00;14.20;;;;;;;-2.53;71.37;100569.85;222059;1264;139311;-74
2023/02/10 07:33:56;;;;;;;25.00;13.80;;;;;;;-2.39;71.19;100571.88;221885;1256;138943;-75
2023/02/10 07:38:58;;;;;;;20.10;11.10;;;;;;;-2.26;70.58;100571.14;221737;1264;25851;-75
2023/02/10 07:44:00;;;;;;;24.10;14.30;;;;;;;-2.11;70.65;100571.73;221640;1258;138496;-75
2023/02/10 07:49:03;;;;;;;25.00;14.30;;;;;;;-1.81;70.66;100569.41;221630;1265;139383;-74
2023/02/10 07:54:05;;;;;;;26.70;14.10;;;;;;;-1.58;69.92;100571.00;221619;1265;139010;-73
2023/02/10 07:59:07;;;;;;;26.30;15.30;;;;;;;-1.46;69.64;100570.80;221454;1265;138665;-74
2023/02/10 08:04:10;;;;;;;25.60;14.80;;;;;;;-1.36;69.58;100577.48;221545;1265;138735;-72
2023/02/10 08:09:12;;;;;;;33.00;15.50;;;;;;;-1.27;69.26;100578.96;221635;1264;138850;-73
2023/02/10 08:14:25;;;;;;;29.20;15.90;;;;;;;-1.19;68.70;100582.20;221798;1272;22530;-73
2023/02/10 08:19:27;;;;;;;27.10;16.00;;;;;;;-1.06;68.97;100586.45;221626;1273;138434;-73
2023/02/10 08:24:33;;;;;;;30.90;16.90;;;;;;;-0.92;68.86;100586.33;221575;1270;138731;-74
2023/02/10 08:29:35;;;;;;;30.00;17.40;;;;;;;-0.80;68.42;100595.13;221742;1272;139513;-75
2023/02/10 08:34:50;;;;;;;25.20;14.50;;;;;;;-0.76;67.80;100598.37;221578;1264;200671;-76
2023/02/10 08:39:53;;;;;;;24.60;15.00;;;;;;;-0.71;67.85;100589.83;221955;1260;138667;-75
2023/02/10 08:44:55;;;;;;;28.50;16.10;;;;;;;-0.62;68.15;100594.63;221873;1275;22605;-76
2023/02/10 08:50:03;;;;;;;26.10;15.20;;;;;;;-0.50;67.67;100604.09;221808;1260;138113;-75
2023/02/10 08:55:07;;;;;;;27.70;15.50;;;;;;;-0.41;67.85;100595.16;222000;1272;138448;-76
2023/02/10 09:00:10;;;;;;;25.80;14.10;;;;;;;-0.31;67.59;100589.11;221633;1259;138836;-76
2023/02/10 09:05:14;;;;;;;26.00;15.70;;;;;;;-0.14;67.68;100592.79;221840;1266;138662;-75
2023/02/10 09:10:20;;;;;;;26.80;15.10;;;;;;;0.04;67.32;100592.27;222254;1266;138677;-76
2023/02/10 09:15:23;;;;;;;24.50;14.50;;;;;;;0.24;67.25;100596.95;221895;1259;138467;-75
2023/02/10 09:20:24;;;;;;;26.40;14.70;;;;;;;0.45;66.46;100600.36;221976;1272;22544;-74
2023/02/10 09:25:27;;;;;;;27.50;15.80;;;;;;;0.77;66.13;100590.69;222089;1272;137607;-74
2023/02/10 09:30:32;;;;;;;27.20;15.20;;;;;;;1.11;65.71;100590.93;221896;1272;137967;-76
2023/02/10 09:35:39;;;;;;;28.50;15.40;;;;;;;1.19;64.89;100595.70;221758;1258;138933;-77
2023/02/10 09:41:07;;;;;;;28.20;16.60;;;;;;;1.26;64.51;100598.63;221929;1272;138691;-77
2023/02/10 09:46:22;;;;;;;28.20;16.70;;;;;;;1.44;65.09;100598.50;221929;1264;137788;-77
2023/02/10 09:51:53;;;;;;;27.20;16.60;;;;;;;1.70;65.11;100599.25;221996;1260;138197;-76
2023/02/10 09:57:24;;;;;;;25.80;15.10;;;;;;;2.00;64.40;100619.10;222147;1268;137899;-76
2023/02/10 10:02:59;;;;;;;26.60;16.00;;;;;;;2.09;63.12;100615.10;222221;1271;22544;-75
2023/02/10 10:08:17;;;;;;;27.90;16.50;;;;;;;2.05;63.07;100604.55;221852;1272;137313;-76
2023/02/10 10:13:27;;;;;;;;;;;;;;;2.05;63.65;100605.21;221847;1272;137656;-76
2023/02/10 10:18:54;;;;;;;27.10;15.00;;;;;;;2.32;63.85;100597.06;221998;1265;123707;-76
2023/02/10 10:24:24;;;;;;;25.50;16.30;;;;;;;2.47;62.36;100584.34;221974;1272;137809;-76
2023/02/10 10:29:39;;;;;;;28.90;17.70;;;;;;;2.64;62.52;100585.92;222246;1259;137774;-76
2023/02/10 10:34:52;;;;;;;28.60;17.30;;;;;;;2.75;62.31;100587.85;222480;1272;137790;-77
2023/02/10 10:40:04;;;;;;;27.40;16.70;;;;;;;2.76;62.05;100585.69;221740;1274;137785;-75
2023/02/10 10:45:28;;;;;;;26.60;17.00;;;;;;;2.86;62.24;100588.38;221768;1261;137754;-76
2023/02/10 10:50:35;;;;;;;26.40;16.10;;;;;;;3.04;62.22;100594.06;222074;1272;24221;-75
2023/02/10 10:55:47;;;;;;;26.00;16.00;;;;;;;3.14;61.67;100583.67;221817;1272;137430;-75
2023/02/10 11:00:55;;;;;;;29.40;16.80;;;;;;;3.13;61.83;100584.05;221992;1256;137774;-75
2023/02/10 11:06:13;;;;;;;28.90;16.90;;;;;;;3.23;61.66;100579.62;221929;1268;137829;-77
2023/02/10 11:11:16;;;;;;;27.50;17.10;;;;;;;3.11;61.23;100577.09;221892;1272;137744;-77
2023/02/10 11:16:49;;;;;;;28.90;17.40;;;;;;;3.08;61.64;100565.07;221753;1265;137778;-78
2023/02/10 11:22:16;;;;;;;;;;;;;;;3.05;61.30;100563.34;221773;1272;137983;-76
2023/02/10 11:27:27;;;;;;;;;;;;;;;2.97;61.15;100566.13;221707;1272;123881;-77
2023/02/10 11:32:46;;;;;;;23.80;14.60;;;;;;;2.85;61.04;100560.23;221924;1256;25338;-76
2023/02/10 11:37:58;;;;;;;25.30;14.50;;;;;;;2.76;61.31;100554.72;221855;1273;137584;-73
2023/02/10 11:43:01;;;;;;;22.10;14.10;;;;;;;2.75;61.54;100556.70;221908;1272;138290;-75
2023/02/10 11:48:19;;;;;;;23.10;14.10;;;;;;;2.79;61.69;100552.96;221932;1272;137887;-74
2023/02/10 11:53:27;;;;;;;22.20;14.60;;;;;;;2.81;61.29;100554.56;221754;1274;137962;-74
2023/02/10 11:59:01;;;;;;;22.60;13.80;;;;;;;2.74;61.47;100551.87;221891;1272;138212;-75
2023/02/10 12:04:57;;;;;;;21.90;13.50;;;;;;;2.57;61.09;100550.14;221809;1275;138675;-74
2023/02/10 12:10:23;;;;;;;21.50;14.10;;;;;;;2.41;61.36;100553.36;221943;1272;137932;-74
2023/02/10 12:15:39;;;;;;;22.80;14.20;;;;;;;2.34;61.68;100554.69;221966;1265;138048;-76
2023/02/10 12:20:58;;;;;;;23.10;14.70;;;;;;;2.37;61.87;100556.77;222043;1273;23063;-75
2023/02/10 12:26:49;;;;;;;27.00;15.20;;;;;;;2.46;62.10;100553.09;221926;1265;138545;-75
2023/02/10 12:32:23;;;;;;;28.00;16.30;;;;;;;2.64;62.82;100546.10;221730;1272;138125;-74
2023/02/10 12:38:11;;;;;;;29.70;17.70;;;;;;;2.80;62.60;100547.18;221710;1268;138169;-74
2023/02/10 12:44:14;;;;;;;27.00;17.30;;;;;;;3.01;63.03;100547.60;221879;1268;138688;-73
2023/02/10 12:50:03;;;;;;;27.10;17.40;;;;;;;3.21;62.77;100551.04;221684;1272;138427;-75
2023/02/10 12:55:38;;;;;;;28.80;17.90;;;;;;;3.23;61.71;100553.12;221418;1266;137993;-74
2023/02/10 13:00:50;;;;;;;31.10;18.20;;;;;;;3.17;62.16;100546.36;221801;1272;137838;-75
2023/02/10 13:06:01;;;;;;;31.30;18.80;;;;;;;3.25;62.16;100552.49;221936;1268;137952;-75
2023/02/10 13:11:33;;;;;;;29.40;18.90;;;;;;;3.28;62.17;100557.36;221691;1272;138818;-75
2023/02/10 13:16:36;;;;;;;30.50;18.80;;;;;;;3.43;62.39;100552.17;221647;1272;137885;-74
2023/02/10 13:22:15;;;;;;;26.10;16.80;;;;;;;3.62;62.10;100557.59;221676;1271;139450;-75
2023/02/10 13:27:41;;;;;;;28.80;17.60;;;;;;;3.68;61.29;100568.73;221841;1272;138346;-74
2023/02/10 13:33:21;;;;;;;30.30;18.50;;;;;;;3.66;61.13;100567.44;221873;1272;22586;-74
2023/02/10 13:38:29;;;;;;;27.50;17.50;;;;;;;3.58;61.41;100576.30;221880;1272;24950;-75
2023/02/10 13:43:34;;;;;;;27.80;17.30;;;;;;;3.48;61.34;100576.10;221596;1272;137646;-74
2023/02/10 13:48:37;;;;;;;31.90;19.80;;;;;;;3.41;61.16;100577.06;221841;1272;138374;-76
2023/02/10 13:53:42;;;;;;;31.30;19.40;;;;;;;3.42;61.46;100570.56;222051;1273;138053;-73
2023/02/10 13:59:03;;;;;;;29.50;19.80;;;;;;;3.52;61.89;100572.55;221874;1262;137939;-73
2023/02/10 14:04:26;;;;;;;33.00;18.90;;;;;;;3.66;61.38;100575.30;222001;1272;138285;-74
2023/02/10 14:09:28;;;;;;;30.40;19.20;;;;;;;3.63;61.16;100583.13;221995;1259;138126;-75
2023/02/10 14:14:35;;;;;;;34.60;20.50;;;;;;;3.51;61.60;100590.86;221871;1273;24733;-73
2023/02/10 14:19:39;;;;;;;29.40;18.90;;;;;;;3.44;62.04;100593.95;221685;1275;137786;-73
2023/02/10 14:24:44;;;;;;;35.40;19.90;;;;;;;3.43;62.50;100598.34;221557;1275;137726;-74
2023/02/10 14:29:53;;;;;;;;;;;;;;;3.46;62.51;100598.52;221760;1275;138064;-73
2023/02/10 14:34:59;;;;;;;34.50;19.10;;;;;;;3.42;62.25;100592.86;221894;1260;22677;-74
2023/02/10 14:40:03;;;;;;;38.20;22.20;;;;;;;3.35;62.56;100595.89;221734;1273;23278;-74
2023/02/10 14:45:06;;;;;;;34.60;21.30;;;;;;;3.25;62.29;100596.56;221949;1265;25234;-73
2023/02/10 14:50:22;;;;;;;36.50;22.00;;;;;;;3.10;62.60;100591.92;221703;1274;22536;-73
2023/02/10 14:55:30;;;;;;;36.80;21.70;;;;;;;2.95;62.69;100587.10;221538;1275;24366;-72
2023/02/10 15:00:34;;;;;;;36.90;21.90;;;;;;;2.82;62.99;100590.38;221897;1274;23266;-72
2023/02/10 15:05:44;;;;;;;37.40;22.40;;;;;;;2.73;63.42;100590.36;221300;1275;22736;-73
2023/02/10 15:10:49;;;;;;;38.20;21.90;;;;;;;2.66;63.87;100588.77;221340;1278;23483;-73
2023/02/10 15:15:54;;;;;;;37.40;22.70;;;;;;;2.59;63.76;100584.51;221081;1280;22555;-73
2023/02/10 15:21:00;;;;;;;36.60;23.00;;;;;;;2.50;63.90;100583.97;221486;1278;24245;-72
2023/02/10 15:26:16;;;;;;;35.30;22.20;;;;;;;2.42;64.35;100588.95;221175;1275;22555;-73
2023/02/10 15:31:25;;;;;;;36.70;22.40;;;;;;;2.37;64.80;100596.06;221211;1278;22553;-73
2023/02/10 15:36:35;;;;;;;39.50;23.90;;;;;;;2.30;64.73;100597.36;220898;1278;23035;-73
2023/02/10 15:41:45;;;;;;;37.50;23.40;;;;;;;2.21;64.88;100602.39;221253;1278;24410;-73
2023/02/10 15:46:49;;;;;;;41.70;25.10;;;;;;;2.15;65.20;100607.46;220998;1275;22552;-73
2023/02/10 15:51:54;;;;;;;45.00;26.30;;;;;;;2.08;65.39;100616.89;221530;1276;25348;-73
2023/02/10 15:57:02;;;;;;;46.40;26.30;;;;;;;1.99;65.50;100616.57;221324;1277;22556;-72
2023/02/10 16:02:10;;;;;;;46.70;27.30;;;;;;;1.90;65.56;100613.98;221232;1275;25246;-75
2023/02/10 16:07:21;;;;;;;44.90;26.10;;;;;;;1.83;66.07;100616.59;221413;1278;22552;-74
2023/02/10 16:12:24;;;;;;;47.10;27.40;;;;;;;1.79;66.29;100617.16;221203;1278;25303;-71
2023/02/10 16:17:32;;;;;;;44.90;26.10;;;;;;;1.76;66.84;100619.77;221082;1280;22595;-73
2023/02/10 16:22:34;;;;;;;50.20;27.70;;;;;;;1.73;67.04;100623.77;221295;1280;24235;-73
2023/02/10 16:27:37;;;;;;;42.90;26.80;;;;;;;1.70;66.89;100616.80;221382;1275;24208;-72
2023/02/10 16:32:42;;;;;;;44.60;27.20;;;;;;;1.65;67.07;100609.77;221378;1262;23307;-73
2023/02/10 16:37:44;;;;;;;53.00;30.80;;;;;;;1.61;67.54;100610.88;221340;1277;25239;-72
2023/02/10 16:42:46;;;;;;;48.50;27.50;;;;;;;1.57;67.38;100611.68;221170;1280;23190;-73
2023/02/10 16:47:49;;;;;;;48.70;27.90;;;;;;;1.51;67.70;100612.68;221170;1280;22543;-73
2023/02/10 16:52:51;;;;;;;47.80;26.60;;;;;;;1.45;67.82;100626.39;221332;1280;22594;-73
2023/02/10 16:57:54;;;;;;;47.90;28.90;;;;;;;1.45;68.31;100627.29;221306;1278;24372;-73
2023/02/10 17:02:58;;;;;;;50.60;28.40;;;;;;;1.43;68.32;100628.06;221438;1278;22560;-72
2023/02/10 17:08:02;;;;;;;50.70;27.70;;;;;;;1.43;68.38;100625.47;221423;1280;25385;-72
2023/02/10 17:13:04;;;;;;;52.00;27.90;;;;;;;1.42;68.37;100630.05;221399;1279;22560;-72
2023/02/10 17:18:06;;;;;;;47.40;27.10;;;;;;;1.39;68.24;100630.03;221144;1279;22533;-73
2023/02/10 17:23:11;;;;;;;41.90;23.30;;;;;;;1.35;68.50;100633.67;221170;1278;23820;-73
2023/02/10 17:28:16;;;;;;;46.30;27.30;;;;;;;1.33;68.54;100642.51;221456;1279;25314;-73
2023/02/10 17:33:27;;;;;;;44.30;26.10;;;;;;;1.31;68.68;100644.20;221227;1280;22538;-72
2023/02/10 17:43:48;;;;;;;47.50;28.00;;;;;;;1.23;68.88;100644.98;221323;1279;22556;-73
2023/02/10 17:48:51;;;;;;;52.40;29.30;;;;;;;1.21;68.83;100638.14;221459;1278;25240;-73
2023/02/10 17:53:53;;;;;;;52.00;28.00;;;;;;;1.17;68.96;100637.31;221209;1278;23828;-74
2023/02/10 17:58:55;;;;;;;48.80;29.30;;;;;;;1.14;69.39;100636.77;221362;1275;22554;-73
2023/02/10 18:03:58;;;;;;;52.70;28.90;;;;;;;1.10;69.30;100638.39;221222;1280;22616;-72
2023/02/10 18:09:00;;;;;;;54.60;30.50;;;;;;;1.05;69.65;100637.75;221407;1280;22540;-73
2023/02/10 18:14:02;;;;;;;46.30;27.00;;;;;;;1.03;69.72;100644.85;221290;1279;25242;-73
2023/02/10 18:19:05;;;;;;;48.20;28.60;;;;;;;0.99;69.36;100632.35;221259;1278;22539;-72
2023/02/10 18:24:07;;;;;;;49.50;28.30;;;;;;;0.97;69.49;100631.23;221230;1280;23212;-73
2023/02/10 18:29:09;;;;;;;54.00;29.70;;;;;;;0.95;69.59;100635.51;221143;1280;22596;-74
2023/02/10 18:34:11;;;;;;;54.90;30.10;;;;;;;0.94;69.76;100633.88;221358;1278;22536;-71
2023/02/10 18:39:14;;;;;;;53.50;30.50;;;;;;;0.92;69.78;100627.89;221217;1279;22659;-72
2023/02/10 18:44:17;;;;;;;49.40;28.30;;;;;;;0.90;70.00;100620.38;221295;1278;23591;-73
2023/02/10 18:49:19;;;;;;;51.30;27.90;;;;;;;0.86;70.01;100618.14;221461;1278;23134;-72
2023/02/10 18:54:22;;;;;;;53.10;30.70;;;;;;;0.84;69.97;100616.71;221317;1278;24361;-73
2023/02/10 18:59:24;;;;;;;51.50;29.40;;;;;;;0.80;70.01;100615.52;221260;1280;22552;-72
2023/02/10 19:04:26;;;;;;;53.30;30.50;;;;;;;0.77;70.14;100625.36;221416;1280;22576;-72
2023/02/10 19:09:28;;;;;;;58.00;30.10;;;;;;;0.75;70.39;100626.17;221136;1280;22536;-73
2023/02/10 19:14:39;;;;;;;55.60;30.80;;;;;;;0.72;70.60;100623.92;221201;1281;25423;-72
2023/02/10 19:19:42;;;;;;;58.00;31.50;;;;;;;0.69;70.58;100624.41;221255;1280;22654;-72
2023/02/10 19:24:44;;;;;;;56.50;31.20;;;;;;;0.69;70.43;100627.56;221220;1280;22603;-74
2023/02/10 19:29:46;;;;;;;50.20;28.50;;;;;;;0.66;70.67;100629.80;221269;1278;22654;-73
2023/02/10 19:34:49;;;;;;;53.50;30.50;;;;;;;0.62;70.63;100627.36;221393;1277;22691;-72
2023/02/10 19:39:52;;;;;;;54.00;30.60;;;;;;;0.58;70.95;100629.37;221282;1280;22542;-71
2023/02/10 19:44:54;;;;;;;59.80;34.40;;;;;;;0.53;70.65;100632.36;221295;1277;25500;-72
2023/02/10 19:49:57;;;;;;;55.50;32.40;;;;;;;0.53;71.05;100630.64;221315;1280;22585;-72
2023/02/10 19:54:58;;;;;;;56.80;32.20;;;;;;;0.54;71.18;100637.16;221225;1279;22547;-73
2023/02/10 20:00:01;;;;;;;56.60;32.90;;;;;;;0.55;71.43;100639.89;221277;1256;22627;-72
2023/02/10 20:05:12;;;;;;;58.00;31.20;;;;;;;0.53;71.45;100643.79;220784;1280;24279;-72
2023/02/10 20:10:14;;;;;;;59.80;32.90;;;;;;;0.50;71.20;100630.27;221404;1278;24433;-72
2023/02/10 20:15:16;;;;;;;56.50;31.70;;;;;;;0.44;71.36;100613.25;221358;1280;22634;-72
2023/02/10 20:20:19;;;;;;;55.90;31.80;;;;;;;0.37;71.04;100611.69;221382;1279;24340;-73
2023/02/10 20:25:21;;;;;;;61.20;33.00;;;;;;;0.31;71.55;100619.83;221490;1280;22636;-71
2023/02/10 20:30:23;;;;;;;57.10;32.00;;;;;;;0.21;71.66;100616.85;221142;1278;25703;-72
2023/02/10 20:35:25;;;;;;;52.70;29.80;;;;;;;0.10;71.68;100622.43;221358;1280;192921;-72
2023/02/10 20:40:31;;;;;;;58.30;32.00;;;;;;;-0.06;71.53;100618.72;221390;1278;25218;-73
2023/02/10 20:45:34;;;;;;;56.20;31.30;;;;;;;-0.22;71.74;100620.20;221062;1277;25454;-73
2023/02/10 20:50:36;;;;;;;55.60;30.50;;;;;;;-0.37;72.07;100615.07;221232;1280;22545;-72
2023/02/10 20:55:39;;;;;;;53.70;30.40;;;;;;;-0.51;72.19;100614.16;221123;1278;24274;-73
2023/02/10 21:00:42;;;;;;;52.40;30.40;;;;;;;-0.64;72.62;100605.27;221541;1278;26531;-73
2023/02/10 21:05:44;;;;;;;56.20;32.80;;;;;;;-0.79;72.65;100609.95;221237;1280;22586;-73
2023/02/10 21:10:46;;;;;;;68.30;35.60;;;;;;;-0.91;73.00;100612.77;221278;1279;22575;-72
2023/02/10 21:15:51;;;;;;;63.30;34.70;;;;;;;-1.02;72.82;100608.77;221236;1279;22545;-72
2023/02/10 21:20:57;;;;;;;66.10;35.60;;;;;;;-1.14;73.42;100616.37;221206;1280;24279;-73
2023/02/10 21:26:00;;;;;;;61.50;34.40;;;;;;;-1.23;73.61;100607.14;221238;1273;22555;-72
2023/02/10 21:31:18;;;;;;;67.40;37.70;;;;;;;-1.35;73.35;100613.52;221298;1279;22543;-71
2023/02/10 21:36:25;;;;;;;73.60;39.90;;;;;;;-1.46;73.66;100610.05;221590;1278;24283;-72
2023/02/10 21:41:40;;;;;;;61.10;35.00;;;;;;;-1.56;73.90;100603.40;221488;1277;25248;-71
2023/02/10 21:46:47;;;;;;;64.30;35.10;;;;;;;-1.66;73.97;100596.42;221317;1278;25340;-71
2023/02/10 21:51:51;;;;;;;59.90;31.00;;;;;;;-1.76;74.32;100594.77;221165;1279;23317;-72
2023/02/10 21:56:55;;;;;;;67.90;35.60;;;;;;;-1.84;74.58;100583.70;221228;1280;22540;-72
2023/02/10 22:01:59;;;;;;;68.50;36.70;;;;;;;-1.92;74.58;100570.92;221278;1281;24467;-72
2023/02/10 22:07:01;;;;;;;72.90;38.50;;;;;;;-2.01;74.55;100557.68;221228;1277;22548;-71
2023/02/10 22:12:07;;;;;;;69.50;37.30;;;;;;;-2.06;74.85;100555.98;221292;1280;22653;-73
2023/02/10 22:17:09;;;;;;;71.50;37.60;;;;;;;-2.10;75.21;100554.98;221351;1280;24045;-72
2023/02/10 22:22:11;;;;;;;71.60;38.20;;;;;;;-2.15;75.38;100532.05;221248;1280;25623;-72
2023/02/10 22:27:13;;;;;;;70.60;36.40;;;;;;;-2.20;75.41;100522.92;221155;1280;22609;-72
2023/02/10 22:32:17;;;;;;;66.90;36.30;;;;;;;-2.23;75.56;100515.45;221216;1280;22692;-72
2023/02/10 22:37:20;;;;;;;67.90;35.50;;;;;;;-2.24;76.05;100509.48;220972;1280;24321;-72
2023/02/10 22:42:21;;;;;;;67.10;36.00;;;;;;;-2.23;75.95;100518.24;221144;1280;22715;-71
2023/02/10 22:47:24;;;;;;;67.10;34.00;;;;;;;-2.23;76.10;100521.19;221227;1278;22541;-71
2023/02/10 22:52:26;;;;;;;64.20;34.40;;;;;;;-2.24;76.21;100520.02;221314;1279;25607;-72
2023/02/10 22:57:29;;;;;;;70.80;37.20;;;;;;;-2.25;76.58;100521.08;221328;1280;25666;-71
2023/02/10 23:02:31;;;;;;;76.20;38.10;;;;;;;-2.26;76.35;100526.29;221294;1273;22568;-72
2023/02/10 23:07:33;;;;;;;76.60;38.20;;;;;;;-2.27;76.81;100522.02;221384;1279;25709;-72
2023/02/10 23:12:37;;;;;;;80.60;40.50;;;;;;;-2.29;76.81;100519.52;221269;1279;22690;-72